createdAt,value
2019-01-16T00:00:18.319Z,100268.09
2019-01-16T00:01:11.188Z,100266.10
2019-01-16T00:01:57.786Z,100269.53
2019-01-16T00:02:59.556Z,100265.31
2019-01-16T00:04:03.365Z,100267.82
2019-01-16T00:05:03.888Z,100270.89
2019-01-16T00:05:48.306Z,100265.31
2019-01-16T00:06:41.395Z,100266.61
2019-01-16T00:07:34.317Z,100272.61
2019-01-16T00:08:27.510Z,100265.00
2019-01-16T00:09:21.621Z,100265.44
2019-01-16T00:10:28.140Z,100270.11
2019-01-16T00:11:16.076Z,100269.65
2019-01-16T00:12:13.810Z,100262.78
2019-01-16T00:13:09.657Z,100267.77
2019-01-16T00:14:16.964Z,100277.31
2019-01-16T00:15:11.392Z,100263.30
2019-01-16T00:16:14.845Z,100266.08
2019-01-16T00:17:13.672Z,100265.25
2019-01-16T00:18:17.087Z,100259.34
2019-01-16T00:18:57.829Z,100263.60
2019-01-16T00:19:44.154Z,100258.06
2019-01-16T00:20:28.441Z,100262.32
2019-01-16T00:21:18.936Z,100258.07
2019-01-16T00:22:25.772Z,100257.58
2019-01-16T00:23:18.613Z,100264.03
2019-01-16T00:24:15.975Z,100264.88
2019-01-16T00:25:08.632Z,100259.68
2019-01-16T00:26:01.462Z,100263.22
2019-01-16T00:27:02.125Z,100256.02
2019-01-16T00:27:55.253Z,100253.41
2019-01-16T00:28:48.387Z,100255.10
2019-01-16T00:29:48.983Z,100255.51
2019-01-16T00:30:36.098Z,100256.77
2019-01-16T00:31:32.906Z,100253.41
2019-01-16T00:32:17.367Z,100252.09
2019-01-16T00:33:10.099Z,100255.09
2019-01-16T00:33:59.822Z,100246.94
2019-01-16T00:34:48.214Z,100255.41
2019-01-16T00:35:41.409Z,100253.63
2019-01-16T00:36:44.713Z,100245.90
2019-01-16T00:37:33.943Z,100247.73
2019-01-16T00:38:34.264Z,100255.91
2019-01-16T00:39:31.751Z,100253.61
2019-01-16T00:40:27.917Z,100248.00
2019-01-16T00:41:22.398Z,100246.75
2019-01-16T00:42:23.139Z,100255.38
2019-01-16T00:43:16.460Z,100248.11
2019-01-16T00:44:11.153Z,100255.54
2019-01-16T00:44:58.363Z,100262.34
2019-01-16T00:46:05.069Z,100257.11
2019-01-16T00:46:58.186Z,100254.47
2019-01-16T00:47:51.254Z,100249.65
2019-01-16T00:48:41.011Z,100254.42
2019-01-16T00:49:34.154Z,100259.60
2019-01-16T00:50:31.600Z,100254.11
2019-01-16T00:51:24.677Z,100255.39
2019-01-16T00:52:22.256Z,100260.56
2019-01-16T00:53:11.012Z,100256.39
2019-01-16T00:54:08.957Z,100252.61
2019-01-16T00:55:02.672Z,100253.08
2019-01-16T00:55:54.268Z,100254.69
2019-01-16T00:56:55.231Z,100254.64
2019-01-16T00:57:58.848Z,100253.83
2019-01-16T00:58:56.197Z,100252.61
2019-01-16T00:59:50.666Z,100255.18
2019-01-16T01:00:35.541Z,100248.78
2019-01-16T01:01:31.861Z,100250.93
2019-01-16T01:02:25.105Z,100251.77
2019-01-16T01:03:34.458Z,100240.67
2019-01-16T01:04:34.956Z,100247.94
2019-01-16T01:05:31.284Z,100248.70
2019-01-16T01:06:24.042Z,100242.70
2019-01-16T01:07:30.596Z,100253.83
2019-01-16T01:08:23.460Z,100247.86
2019-01-16T01:09:24.110Z,100253.70
2019-01-16T01:10:17.063Z,100245.67
2019-01-16T01:11:11.513Z,100243.55
2019-01-16T01:12:05.181Z,100244.06
2019-01-16T01:12:59.065Z,100249.06
2019-01-16T01:13:41.263Z,100253.30
2019-01-16T01:14:31.915Z,100240.55
2019-01-16T01:15:22.746Z,100246.04
2019-01-16T01:16:17.483Z,100239.20
2019-01-16T01:17:02.290Z,100243.05
2019-01-16T01:17:55.668Z,100241.17
2019-01-16T01:18:44.091Z,100250.09
2019-01-16T01:19:36.945Z,100236.91
2019-01-16T01:20:30.247Z,100238.30
2019-01-16T01:21:27.760Z,100239.62
2019-01-16T01:22:11.358Z,100237.98
2019-01-16T01:22:58.481Z,100240.05
2019-01-16T01:23:43.728Z,100241.33
2019-01-16T01:24:30.850Z,100241.75
2019-01-16T01:25:40.974Z,100235.34
2019-01-16T01:26:38.409Z,100237.23
2019-01-16T01:27:40.599Z,100239.98
2019-01-16T01:28:27.162Z,100237.15
2019-01-16T01:29:21.626Z,100234.86
2019-01-16T01:30:19.224Z,100226.86
2019-01-16T01:31:13.929Z,100235.09
2019-01-16T01:32:11.182Z,100240.99
2019-01-16T01:33:04.601Z,100230.32
2019-01-16T01:34:04.375Z,100232.97
2019-01-16T01:35:07.743Z,100238.88
2019-01-16T01:36:13.392Z,100230.83
2019-01-16T01:37:06.547Z,100230.64
2019-01-16T01:38:03.776Z,100229.78
2019-01-16T01:38:50.274Z,100232.20
2019-01-16T01:39:43.090Z,100234.13
2019-01-16T01:40:33.535Z,100240.14
2019-01-16T01:41:37.071Z,100234.23
2019-01-16T01:42:29.607Z,100229.89
2019-01-16T01:43:26.740Z,100238.84
2019-01-16T01:44:17.757Z,100232.47
2019-01-16T01:45:12.554Z,100233.41
2019-01-16T01:46:19.102Z,100236.20
2019-01-16T01:47:19.488Z,100231.08
2019-01-16T01:48:39.802Z,100236.16
2019-01-16T01:49:28.277Z,100234.97
2019-01-16T01:50:29.925Z,100235.73
2019-01-16T01:51:27.553Z,100231.49
2019-01-16T01:52:34.233Z,100226.81
2019-01-16T01:53:24.351Z,100229.78
2019-01-16T01:54:18.277Z,100225.07
2019-01-16T01:55:16.143Z,100229.27
2019-01-16T01:56:18.787Z,100231.45
2019-01-16T01:57:22.899Z,100228.38
2019-01-16T01:58:20.165Z,100231.89
2019-01-16T01:59:14.615Z,100233.95
2019-01-16T02:00:09.299Z,100224.66
2019-01-16T02:01:09.827Z,100231.13
2019-01-16T02:02:04.888Z,100217.05
2019-01-16T02:03:08.555Z,100222.59
2019-01-16T02:04:01.574Z,100226.86
2019-01-16T02:04:58.622Z,100219.63
2019-01-16T02:05:57.106Z,100227.77
2019-01-16T02:06:50.103Z,100221.30
2019-01-16T02:07:50.597Z,100220.88
2019-01-16T02:08:48.050Z,100223.23
2019-01-16T02:09:44.540Z,100218.98
2019-01-16T02:10:41.726Z,100216.93
2019-01-16T02:11:34.594Z,100228.06
2019-01-16T02:12:35.094Z,100229.22
2019-01-16T02:13:34.170Z,100221.58
2019-01-16T02:14:28.735Z,100216.51
2019-01-16T02:15:22.094Z,100211.81
2019-01-16T02:16:15.313Z,100211.48
2019-01-16T02:17:18.913Z,100214.38
2019-01-16T02:18:19.417Z,100206.78
2019-01-16T02:19:06.815Z,100212.27
2019-01-16T02:20:13.075Z,100210.12
2019-01-16T02:21:16.608Z,100208.48
2019-01-16T02:22:10.994Z,100207.11
2019-01-16T02:23:20.544Z,100208.92
2019-01-16T02:24:17.580Z,100203.31
2019-01-16T02:25:06.938Z,100213.64
2019-01-16T02:26:07.378Z,100209.28
2019-01-16T02:27:00.156Z,100206.77
2019-01-16T02:27:46.964Z,100205.82
2019-01-16T02:28:39.802Z,100208.87
2019-01-16T02:29:40.399Z,100208.75
2019-01-16T02:30:34.925Z,100214.41
2019-01-16T02:31:25.126Z,100207.59
2019-01-16T02:32:24.615Z,100204.79
2019-01-16T02:33:17.567Z,100204.36
2019-01-16T02:34:01.889Z,100204.86
2019-01-16T02:34:58.768Z,100205.88
2019-01-16T02:35:46.677Z,100204.59
2019-01-16T02:36:47.027Z,100195.70
2019-01-16T02:37:41.648Z,100196.55
2019-01-16T02:38:51.202Z,100200.75
2019-01-16T02:39:45.596Z,100204.91
2019-01-16T02:40:31.701Z,100200.36
2019-01-16T02:41:41.857Z,100198.23
2019-01-16T02:42:36.252Z,100204.20
2019-01-16T02:43:29.105Z,100199.52
2019-01-16T02:44:29.317Z,100195.15
2019-01-16T02:45:23.923Z,100193.53
2019-01-16T02:46:27.428Z,100195.44
2019-01-16T02:47:23.176Z,100195.94
2019-01-16T02:48:35.511Z,100191.75
2019-01-16T02:49:35.251Z,100187.91
2019-01-16T02:50:22.345Z,100197.70
2019-01-16T02:51:31.701Z,100194.73
2019-01-16T02:52:41.192Z,100195.15
2019-01-16T02:53:34.211Z,100190.89
2019-01-16T02:54:27.321Z,100188.72
2019-01-16T02:55:20.146Z,100184.13
2019-01-16T02:56:26.760Z,100181.13
2019-01-16T02:57:27.657Z,100187.05
2019-01-16T02:58:19.956Z,100187.92
2019-01-16T02:59:14.746Z,100185.42
2019-01-16T02:59:55.352Z,100179.23
2019-01-16T03:00:56.116Z,100173.26
2019-01-16T03:01:49.541Z,100179.69
2019-01-16T03:02:59.270Z,100175.16
2019-01-16T03:03:52.163Z,100180.23
2019-01-16T03:04:55.615Z,100168.12
2019-01-16T03:05:42.732Z,100168.58
2019-01-16T03:06:35.332Z,100173.67
2019-01-16T03:07:22.364Z,100167.68
2019-01-16T03:08:08.899Z,100163.63
2019-01-16T03:09:01.071Z,100165.09
2019-01-16T03:09:53.422Z,100164.72
2019-01-16T03:10:46.191Z,100157.52
2019-01-16T03:11:39.660Z,100163.42
2019-01-16T03:12:32.963Z,100159.90
2019-01-16T03:13:30.129Z,100163.11
2019-01-16T03:14:33.609Z,100170.28
2019-01-16T03:15:33.754Z,100170.64
2019-01-16T03:16:43.353Z,100173.20
2019-01-16T03:17:30.766Z,100170.66
2019-01-16T03:18:37.111Z,100162.95
2019-01-16T03:19:30.049Z,100159.97
2019-01-16T03:20:27.918Z,100154.72
2019-01-16T03:21:23.183Z,100159.84
2019-01-16T03:22:14.997Z,100153.99
2019-01-16T03:23:09.378Z,100164.27
2019-01-16T03:24:17.702Z,100160.50
2019-01-16T03:25:13.740Z,100163.95
2019-01-16T03:26:10.900Z,100163.84
2019-01-16T03:27:03.748Z,100159.24
2019-01-16T03:28:04.468Z,100152.31
2019-01-16T03:28:57.300Z,100150.30
2019-01-16T03:29:50.678Z,100151.06
2019-01-16T03:30:48.450Z,100158.39
2019-01-16T03:31:41.557Z,100138.83
2019-01-16T03:32:31.916Z,100150.61
2019-01-16T03:33:24.915Z,100146.77
2019-01-16T03:34:09.734Z,100150.28
2019-01-16T03:35:13.362Z,100145.58
2019-01-16T03:36:16.566Z,100145.94
2019-01-16T03:37:09.812Z,100147.92
2019-01-16T03:38:07.369Z,100143.77
2019-01-16T03:38:57.091Z,100144.60
2019-01-16T03:39:50.389Z,100142.87
2019-01-16T03:40:55.736Z,100147.58
2019-01-16T03:41:50.147Z,100148.75
2019-01-16T03:42:36.619Z,100143.34
2019-01-16T03:43:37.509Z,100139.06
2019-01-16T03:44:24.219Z,100146.35
2019-01-16T03:45:21.568Z,100141.20
2019-01-16T03:46:18.758Z,100145.00
2019-01-16T03:47:16.184Z,100140.73
2019-01-16T03:48:22.720Z,100136.19
2019-01-16T03:49:13.265Z,100138.75
2019-01-16T03:50:02.830Z,100135.36
2019-01-16T03:50:55.680Z,100147.72
2019-01-16T03:51:40.526Z,100130.68
2019-01-16T03:52:25.955Z,100134.48
2019-01-16T03:53:26.601Z,100135.73
2019-01-16T03:54:18.436Z,100138.30
2019-01-16T03:55:24.959Z,100145.61
2019-01-16T03:56:30.983Z,100130.97
2019-01-16T03:57:37.003Z,100131.67
2019-01-16T03:58:27.107Z,100130.52
2019-01-16T03:59:11.760Z,100130.91
2019-01-16T04:00:06.440Z,100125.93
2019-01-16T04:00:52.055Z,100127.17
2019-01-16T04:01:46.084Z,100132.69
2019-01-16T04:02:43.844Z,100129.13
2019-01-16T04:03:36.960Z,100126.34
2019-01-16T04:04:20.759Z,100122.05
2019-01-16T04:05:15.423Z,100130.84
2019-01-16T04:06:01.515Z,100136.84
2019-01-16T04:07:14.255Z,100131.41
2019-01-16T04:08:11.743Z,100120.39
2019-01-16T04:08:57.765Z,100129.73
2019-01-16T04:09:45.702Z,100126.34
2019-01-16T04:10:42.963Z,100131.45
2019-01-16T04:11:43.453Z,100121.99
2019-01-16T04:12:30.566Z,100122.05
2019-01-16T04:13:24.964Z,100118.94
2019-01-16T04:14:18.030Z,100116.28
2019-01-16T04:15:15.493Z,100119.50
2019-01-16T04:16:04.511Z,100109.44
2019-01-16T04:17:01.871Z,100122.27
2019-01-16T04:17:55.073Z,100113.69
2019-01-16T04:18:48.315Z,100117.72
2019-01-16T04:19:46.753Z,100115.59
2019-01-16T04:20:53.337Z,100118.98
2019-01-16T04:21:47.714Z,100112.09
2019-01-16T04:22:42.409Z,100106.13
2019-01-16T04:23:28.105Z,100105.05
2019-01-16T04:24:19.194Z,100106.98
2019-01-16T04:25:12.044Z,100107.86
2019-01-16T04:26:15.909Z,100106.01
2019-01-16T04:27:22.555Z,100103.01
2019-01-16T04:28:18.747Z,100106.97
2019-01-16T04:29:13.124Z,100101.13
2019-01-16T04:29:58.630Z,100099.31
2019-01-16T04:30:59.252Z,100099.66
2019-01-16T04:31:54.550Z,100095.05
2019-01-16T04:32:57.857Z,100098.45
2019-01-16T04:34:10.483Z,100101.16
2019-01-16T04:35:14.243Z,100105.69
2019-01-16T04:36:07.350Z,100102.41
2019-01-16T04:37:00.318Z,100090.36
2019-01-16T04:37:54.771Z,100093.34
2019-01-16T04:38:54.987Z,100097.08
2019-01-16T04:39:47.816Z,100095.62
2019-01-16T04:40:59.983Z,100095.20
2019-01-16T04:41:52.779Z,100099.22
2019-01-16T04:42:41.899Z,100100.62
2019-01-16T04:43:34.506Z,100090.89
2019-01-16T04:44:26.778Z,100086.19
2019-01-16T04:45:29.940Z,100090.03
2019-01-16T04:46:29.919Z,100096.75
2019-01-16T04:47:23.068Z,100090.89
2019-01-16T04:48:09.611Z,100090.12
2019-01-16T04:49:07.310Z,100094.28
2019-01-16T04:50:04.553Z,100095.86
2019-01-16T04:50:57.454Z,100087.09
2019-01-16T04:52:00.777Z,100092.20
2019-01-16T04:53:04.392Z,100083.77
2019-01-16T04:54:04.438Z,100100.41
2019-01-16T04:55:01.787Z,100086.72
2019-01-16T04:56:08.254Z,100085.89
2019-01-16T04:57:01.516Z,100089.95
2019-01-16T04:57:55.931Z,100086.30
2019-01-16T04:58:49.234Z,100082.25
2019-01-16T04:59:43.672Z,100081.45
2019-01-16T05:00:44.113Z,100077.69
2019-01-16T05:01:42.526Z,100074.39
2019-01-16T05:02:36.912Z,100068.38
2019-01-16T05:03:31.714Z,100067.11
2019-01-16T05:04:40.945Z,100065.48
2019-01-16T05:05:41.215Z,100072.44
2019-01-16T05:06:53.803Z,100062.55
2019-01-16T05:07:55.039Z,100063.58
2019-01-16T05:08:44.697Z,100064.86
2019-01-16T05:09:30.836Z,100059.88
2019-01-16T05:10:26.314Z,100064.52
2019-01-16T05:11:23.595Z,100066.66
2019-01-16T05:12:12.597Z,100062.38
2019-01-16T05:13:07.071Z,100062.38
2019-01-16T05:13:57.297Z,100063.66
2019-01-16T05:14:54.599Z,100056.67
2019-01-16T05:16:04.195Z,100063.16
2019-01-16T05:16:58.605Z,100062.80
2019-01-16T05:17:56.052Z,100060.46
2019-01-16T05:18:56.348Z,100065.66
2019-01-16T05:19:53.879Z,100066.92
2019-01-16T05:20:43.003Z,100059.80
2019-01-16T05:21:37.451Z,100067.27
2019-01-16T05:22:32.100Z,100059.69
2019-01-16T05:23:24.977Z,100061.42
2019-01-16T05:24:18.071Z,100057.25
2019-01-16T05:25:00.652Z,100056.75
2019-01-16T05:26:10.017Z,100061.93
2019-01-16T05:26:56.070Z,100053.41
2019-01-16T05:27:49.394Z,100056.41
2019-01-16T05:28:46.549Z,100058.90
2019-01-16T05:29:45.981Z,100059.75
2019-01-16T05:30:43.473Z,100052.05
2019-01-16T05:31:35.714Z,100049.87
2019-01-16T05:32:29.529Z,100060.23
2019-01-16T05:33:27.866Z,100060.59
2019-01-16T05:34:28.479Z,100064.86
2019-01-16T05:35:26.260Z,100058.52
2019-01-16T05:36:21.192Z,100045.91
2019-01-16T05:37:14.384Z,100048.88
2019-01-16T05:38:08.718Z,100046.87
2019-01-16T05:39:10.106Z,100057.16
2019-01-16T05:40:19.422Z,100048.84
2019-01-16T05:41:19.498Z,100049.55
2019-01-16T05:42:22.623Z,100042.65
2019-01-16T05:43:07.857Z,100043.98
2019-01-16T05:44:14.536Z,100047.84
2019-01-16T05:45:14.658Z,100041.80
2019-01-16T05:46:09.336Z,100048.92
2019-01-16T05:47:15.708Z,100050.50
2019-01-16T05:48:22.022Z,100051.17
2019-01-16T05:49:19.062Z,100043.52
2019-01-16T05:50:13.450Z,100043.93
2019-01-16T05:51:19.626Z,100044.34
2019-01-16T05:52:08.717Z,100038.88
2019-01-16T05:52:52.100Z,100045.22
2019-01-16T05:53:45.579Z,100034.19
2019-01-16T05:54:52.117Z,100037.19
2019-01-16T05:55:46.596Z,100038.58
2019-01-16T05:56:39.831Z,100040.63
2019-01-16T05:57:37.157Z,100038.05
2019-01-16T05:58:34.369Z,100033.81
2019-01-16T05:59:28.896Z,100032.88
2019-01-16T06:00:33.414Z,100027.22
2019-01-16T06:01:24.705Z,100023.06
2019-01-16T06:02:21.619Z,100028.64
2019-01-16T06:03:18.753Z,100032.91
2019-01-16T06:04:11.934Z,100029.48
2019-01-16T06:05:09.437Z,100026.61
2019-01-16T06:06:02.723Z,100031.59
2019-01-16T06:07:02.043Z,100019.30
2019-01-16T06:07:59.241Z,100030.20
2019-01-16T06:09:05.600Z,100026.38
2019-01-16T06:10:00.273Z,100026.09
2019-01-16T06:11:07.106Z,100024.48
2019-01-16T06:12:14.538Z,100028.20
2019-01-16T06:13:17.767Z,100025.62
2019-01-16T06:14:04.403Z,100030.81
2019-01-16T06:14:58.819Z,100026.06
2019-01-16T06:16:05.394Z,100022.63
2019-01-16T06:17:00.118Z,100011.45
2019-01-16T06:17:57.686Z,100019.35
2019-01-16T06:19:10.895Z,100015.89
2019-01-16T06:20:07.828Z,100021.50
2019-01-16T06:21:02.247Z,100019.99
2019-01-16T06:22:00.933Z,100010.31
2019-01-16T06:23:01.224Z,100013.39
2019-01-16T06:23:55.932Z,100002.75
2019-01-16T06:24:48.450Z,100003.28
2019-01-16T06:25:45.930Z,100013.87
2019-01-16T06:26:43.163Z,100007.38
2019-01-16T06:27:40.647Z,100011.13
2019-01-16T06:28:44.909Z,100012.13
2019-01-16T06:29:45.177Z,100015.13
2019-01-16T06:30:38.144Z,100006.55
2019-01-16T06:31:31.300Z,100006.14
2019-01-16T06:32:34.613Z,100001.22
2019-01-16T06:33:21.860Z,100013.30
2019-01-16T06:34:26.324Z,100004.33
2019-01-16T06:35:30.053Z,100009.89
2019-01-16T06:36:27.330Z,100005.30
2019-01-16T06:37:27.415Z,100003.71
2019-01-16T06:38:31.252Z,100011.36
2019-01-16T06:39:26.109Z,100006.67
2019-01-16T06:40:08.775Z,100004.45
2019-01-16T06:41:01.969Z,100007.41
2019-01-16T06:41:46.244Z,100005.55
2019-01-16T06:42:49.996Z,100007.74
2019-01-16T06:43:38.809Z,100004.42
2019-01-16T06:44:42.025Z,100004.77
2019-01-16T06:45:45.161Z,100006.58
2019-01-16T06:46:43.697Z,100009.28
2019-01-16T06:47:29.618Z,99998.45
2019-01-16T06:48:24.276Z,100003.19
2019-01-16T06:49:17.569Z,99998.80
2019-01-16T06:50:16.532Z,100008.33
2019-01-16T06:50:55.213Z,100007.03
2019-01-16T06:51:45.219Z,100007.88
2019-01-16T06:52:34.531Z,99999.36
2019-01-16T06:53:27.674Z,99999.30
2019-01-16T06:54:28.522Z,99992.73
2019-01-16T06:55:21.742Z,99999.13
2019-01-16T06:56:25.187Z,100001.41
2019-01-16T06:57:29.113Z,100003.02
2019-01-16T06:58:36.076Z,100000.98
2019-01-16T06:59:36.517Z,99996.48
2019-01-16T07:00:34.992Z,99993.59
2019-01-16T07:01:32.721Z,99997.76
2019-01-16T07:02:26.069Z,99997.28
2019-01-16T07:03:29.560Z,99997.95
2019-01-16T07:04:29.929Z,100001.49
2019-01-16T07:05:37.014Z,99992.00
2019-01-16T07:06:25.265Z,99998.55
2019-01-16T07:07:30.883Z,99995.00
2019-01-16T07:08:34.612Z,99993.50
2019-01-16T07:09:26.238Z,99997.73
2019-01-16T07:10:26.597Z,99993.16
2019-01-16T07:11:15.061Z,99992.94
2019-01-16T07:12:11.968Z,99993.89
2019-01-16T07:13:12.613Z,99982.08
2019-01-16T07:14:12.929Z,99991.90
2019-01-16T07:15:11.209Z,99988.34
2019-01-16T07:16:08.892Z,99988.34
2019-01-16T07:17:02.019Z,99989.92
2019-01-16T07:18:08.379Z,99986.23
2019-01-16T07:18:55.736Z,99983.92
2019-01-16T07:19:59.284Z,99987.94
2019-01-16T07:20:54.115Z,99986.32
2019-01-16T07:21:47.150Z,99993.46
2019-01-16T07:22:44.355Z,99991.81
2019-01-16T07:23:32.023Z,99991.95
2019-01-16T07:24:32.465Z,99989.88
2019-01-16T07:25:31.943Z,99990.52
2019-01-16T07:26:29.653Z,99988.09
2019-01-16T07:27:23.120Z,99987.30
2019-01-16T07:28:16.198Z,99988.19
2019-01-16T07:29:09.193Z,99990.50
2019-01-16T07:30:02.564Z,99990.16
2019-01-16T07:30:59.906Z,99986.91
2019-01-16T07:31:52.799Z,99987.73
2019-01-16T07:32:47.232Z,99982.97
2019-01-16T07:33:33.235Z,99991.45
2019-01-16T07:34:23.839Z,99993.91
2019-01-16T07:35:11.858Z,99985.45
2019-01-16T07:36:04.756Z,99994.37
2019-01-16T07:37:06.351Z,99979.91
2019-01-16T07:37:52.086Z,99988.05
2019-01-16T07:39:01.655Z,99985.81
2019-01-16T07:39:54.775Z,99984.61
2019-01-16T07:40:40.756Z,99988.45
2019-01-16T07:41:36.397Z,99990.16
2019-01-16T07:42:29.392Z,99992.75
2019-01-16T07:43:12.628Z,99988.91
2019-01-16T07:44:02.030Z,99990.33
2019-01-16T07:44:58.796Z,99987.20
2019-01-16T07:45:43.170Z,99987.31
2019-01-16T07:46:25.902Z,99980.21
2019-01-16T07:47:20.568Z,99977.58
2019-01-16T07:48:24.214Z,99974.50
2019-01-16T07:49:30.839Z,99975.62
2019-01-16T07:50:28.358Z,99984.61
2019-01-16T07:51:26.076Z,99976.56
2019-01-16T07:52:25.572Z,99983.25
2019-01-16T07:53:32.118Z,99985.41
2019-01-16T07:54:25.017Z,99985.75
2019-01-16T07:55:18.170Z,99980.77
2019-01-16T07:56:11.024Z,99981.73
2019-01-16T07:57:09.682Z,99980.89
2019-01-16T07:58:02.673Z,99975.36
2019-01-16T07:59:11.949Z,99984.64
2019-01-16T08:00:01.179Z,99979.56
2019-01-16T08:00:55.893Z,99982.05
2019-01-16T08:01:53.630Z,99976.92
2019-01-16T08:02:50.873Z,99979.50
2019-01-16T08:04:00.446Z,99977.71
2019-01-16T08:05:00.777Z,99980.61
2019-01-16T08:05:55.188Z,99971.27
2019-01-16T08:06:52.134Z,99977.71
2019-01-16T08:07:41.425Z,99983.48
2019-01-16T08:08:31.496Z,99977.20
2019-01-16T08:09:22.602Z,99979.78
2019-01-16T08:10:36.154Z,99977.71
2019-01-16T08:11:26.513Z,99982.93
2019-01-16T08:12:19.579Z,99985.24
2019-01-16T08:13:16.671Z,99977.06
2019-01-16T08:14:11.233Z,99977.97
2019-01-16T08:15:04.182Z,99977.67
2019-01-16T08:16:01.645Z,99973.16
2019-01-16T08:16:51.842Z,99974.34
2019-01-16T08:17:47.308Z,99975.15
2019-01-16T08:18:44.468Z,99984.52
2019-01-16T08:19:48.259Z,99980.34
2019-01-16T08:20:42.724Z,99976.52
2019-01-16T08:21:39.544Z,99976.07
2019-01-16T08:22:33.579Z,99979.80
2019-01-16T08:23:46.166Z,99976.78
2019-01-16T08:24:38.970Z,99985.49
2019-01-16T08:25:39.202Z,99978.50
2019-01-16T08:26:33.705Z,99984.40
2019-01-16T08:27:33.602Z,99977.14
2019-01-16T08:28:40.917Z,99977.10
2019-01-16T08:29:38.150Z,99985.77
2019-01-16T08:30:30.946Z,99981.52
2019-01-16T08:31:27.096Z,99990.47
2019-01-16T08:32:27.604Z,99992.22
2019-01-16T08:33:20.404Z,99992.06
2019-01-16T08:34:13.389Z,99984.95
2019-01-16T08:35:16.828Z,99984.47
2019-01-16T08:36:09.945Z,99984.06
2019-01-16T08:37:12.836Z,99984.83
2019-01-16T08:38:05.977Z,99983.69
2019-01-16T08:39:01.210Z,99979.05
2019-01-16T08:39:51.996Z,99977.28
2019-01-16T08:40:45.113Z,99974.27
2019-01-16T08:41:42.617Z,99977.38
2019-01-16T08:42:37.224Z,99977.28
2019-01-16T08:43:24.633Z,99976.38
2019-01-16T08:44:13.754Z,99980.21
2019-01-16T08:45:04.748Z,99972.50
2019-01-16T08:45:51.308Z,99975.82
2019-01-16T08:46:44.514Z,99981.97
2019-01-16T08:47:47.935Z,99975.11
2019-01-16T08:48:43.121Z,99971.80
2019-01-16T08:49:36.169Z,99973.73
2019-01-16T08:50:32.703Z,99962.73
2019-01-16T08:51:25.044Z,99968.55
2019-01-16T08:52:18.514Z,99962.16
2019-01-16T08:53:18.759Z,99971.72
2019-01-16T08:54:11.596Z,99964.47
2019-01-16T08:55:15.189Z,99969.29
2019-01-16T08:56:09.046Z,99964.56
2019-01-16T08:57:03.461Z,99957.08
2019-01-16T08:57:57.845Z,99959.83
2019-01-16T08:58:58.995Z,99962.25
2019-01-16T08:59:56.442Z,99961.45
2019-01-16T09:01:03.058Z,99955.48
2019-01-16T09:01:58.171Z,99954.88
2019-01-16T09:03:01.797Z,99961.88
2019-01-16T09:04:11.388Z,99952.55
2019-01-16T09:04:59.764Z,99958.82
2019-01-16T09:05:57.036Z,99956.58
2019-01-16T09:06:54.157Z,99956.13
2019-01-16T09:07:50.100Z,99950.85
2019-01-16T09:08:47.642Z,99950.85
2019-01-16T09:09:51.199Z,99948.64
2019-01-16T09:10:44.570Z,99949.47
2019-01-16T09:11:43.134Z,99945.89
2019-01-16T09:12:44.913Z,99952.85
2019-01-16T09:13:37.973Z,99949.14
2019-01-16T09:14:32.369Z,99947.20
2019-01-16T09:15:42.193Z,99950.99
2019-01-16T09:16:31.627Z,99953.19
2019-01-16T09:17:35.209Z,99955.61
2019-01-16T09:18:27.853Z,99955.48
2019-01-16T09:19:24.795Z,99961.05
2019-01-16T09:20:16.792Z,99961.56
2019-01-16T09:21:09.571Z,99960.16
2019-01-16T09:22:09.374Z,99958.31
2019-01-16T09:23:03.770Z,99962.86
2019-01-16T09:24:07.279Z,99968.03
2019-01-16T09:25:16.840Z,99962.06
2019-01-16T09:26:23.439Z,99954.61
2019-01-16T09:27:18.103Z,99954.88
2019-01-16T09:28:10.899Z,99959.64
2019-01-16T09:29:14.492Z,99959.89
2019-01-16T09:30:07.281Z,99957.72
2019-01-16T09:31:02.104Z,99958.70
2019-01-16T09:31:55.040Z,99953.94
2019-01-16T09:32:39.086Z,99945.77
2019-01-16T09:33:33.589Z,99941.80
2019-01-16T09:34:23.749Z,99927.37
2019-01-16T09:35:20.976Z,99935.55
2019-01-16T09:36:04.617Z,99928.33
2019-01-16T09:37:04.778Z,99935.25
2019-01-16T09:37:58.153Z,99947.20
2019-01-16T09:38:47.746Z,99934.81
2019-01-16T09:39:40.966Z,99928.77
2019-01-16T09:40:33.685Z,99926.53
2019-01-16T09:41:23.955Z,99923.81
2019-01-16T09:42:17.506Z,99929.38
2019-01-16T09:43:14.904Z,99932.47
2019-01-16T09:44:11.245Z,99922.84
2019-01-16T09:44:59.242Z,99935.95
2019-01-16T09:45:52.185Z,99932.78
2019-01-16T09:46:46.680Z,99933.27
2019-01-16T09:47:50.310Z,99925.09
2019-01-16T09:48:43.639Z,99914.97
2019-01-16T09:49:36.544Z,99921.20
2019-01-16T09:50:29.771Z,99909.81
2019-01-16T09:51:42.405Z,99914.66
2019-01-16T09:52:35.802Z,99917.12
2019-01-16T09:53:32.787Z,99919.57
2019-01-16T09:54:25.926Z,99918.29
2019-01-16T09:55:21.534Z,99911.02
2019-01-16T09:56:30.888Z,99907.55
2019-01-16T09:57:24.138Z,99906.53
2019-01-16T09:58:29.660Z,99900.15
2019-01-16T09:59:22.608Z,99911.69
2019-01-16T10:00:15.740Z,99908.86
2019-01-16T10:01:22.278Z,99915.88
2019-01-16T10:02:16.950Z,99911.66
2019-01-16T10:03:17.691Z,99907.64
2019-01-16T10:04:10.937Z,99906.25
2019-01-16T10:05:08.659Z,99910.12
2019-01-16T10:06:06.164Z,99903.14
2019-01-16T10:07:00.542Z,99904.27
2019-01-16T10:07:53.952Z,99903.55
2019-01-16T10:08:46.907Z,99900.34
2019-01-16T10:09:39.785Z,99902.53
2019-01-16T10:10:40.263Z,99890.06
2019-01-16T10:11:33.119Z,99892.91
2019-01-16T10:12:30.277Z,99897.13
2019-01-16T10:13:33.912Z,99896.81
2019-01-16T10:14:24.573Z,99899.16
2019-01-16T10:15:17.696Z,99892.16
2019-01-16T10:16:20.171Z,99899.81
2019-01-16T10:17:13.654Z,99890.61
2019-01-16T10:18:15.280Z,99898.47
2019-01-16T10:19:12.535Z,99886.00
2019-01-16T10:20:24.940Z,99881.09
2019-01-16T10:21:28.595Z,99891.86
2019-01-16T10:22:27.411Z,99892.83
2019-01-16T10:23:20.838Z,99891.95
2019-01-16T10:24:18.619Z,99892.96
2019-01-16T10:25:05.329Z,99886.73
2019-01-16T10:25:48.631Z,99900.33
2019-01-16T10:26:41.955Z,99891.95
2019-01-16T10:27:36.388Z,99895.11
2019-01-16T10:28:29.542Z,99892.30
2019-01-16T10:29:22.457Z,99894.41
2019-01-16T10:30:34.825Z,99880.24
2019-01-16T10:31:40.368Z,99882.73
2019-01-16T10:32:47.291Z,99883.33
2019-01-16T10:33:40.379Z,99887.36
2019-01-16T10:34:53.049Z,99886.08
2019-01-16T10:35:56.348Z,99881.20
2019-01-16T10:36:53.240Z,99877.11
2019-01-16T10:37:40.033Z,99869.82
2019-01-16T10:38:37.748Z,99857.84
2019-01-16T10:39:40.903Z,99853.28
2019-01-16T10:40:35.320Z,99861.09
2019-01-16T10:41:29.716Z,99859.13
2019-01-16T10:42:20.528Z,99847.28
2019-01-16T10:43:08.481Z,99847.26
2019-01-16T10:44:01.614Z,99847.78
2019-01-16T10:45:01.485Z,99839.76
2019-01-16T10:46:04.727Z,99839.32
2019-01-16T10:47:02.172Z,99854.53
2019-01-16T10:47:56.815Z,99838.70